Time;durP1;ratioP1;P1;durP2;ratioP2;P2;SDS_P1;SDS_P2;PMS_P1;PMS_P2;Temp;Humidity;BMP_temperature;BMP_pressure;BME280_temperature;BME280_humidity;BME280_pressure;Samples;Min_cycle;Max_cycle;Signal;HPM_P1;HPM_P2
2023/05/20 00:01:02;;;;;;;14.55;5.97;;;11.80;99.90;;;;;;5023288;28;20080;-73
2023/05/20 00:03:28;;;;;;;17.42;6.05;;;11.80;99.90;;;;;;5028038;28;20120;-73
2023/05/20 00:05:54;;;;;;;17.33;7.30;;;11.80;99.90;;;;;;5016650;28;20026;-75
2023/05/20 00:08:19;;;;;;;14.43;6.38;;;11.80;99.90;;;;;;5014686;28;20022;-73
2023/05/20 00:10:45;;;;;;;17.15;6.40;;;11.80;99.90;;;;;;5010748;28;20022;-72
2023/05/20 00:13:11;;;;;;;18.02;7.00;;;11.70;99.90;;;;;;5020993;28;20065;-74
2023/05/20 00:15:36;;;;;;;15.27;7.13;;;11.70;99.90;;;;;;5028852;28;20032;-72
2023/05/20 00:18:02;;;;;;;18.23;6.35;;;11.70;99.90;;;;;;5016392;28;20033;-72
2023/05/20 00:20:28;;;;;;;18.73;6.30;;;11.70;99.90;;;;;;5026905;28;20014;-73
2023/05/20 00:22:54;;;;;;;21.17;7.45;;;11.70;99.90;;;;;;5023006;28;20355;-76
2023/05/20 00:25:19;;;;;;;18.77;6.45;;;11.70;99.90;;;;;;5017473;28;20037;-72
2023/05/20 00:27:46;;;;;;;14.65;7.10;;;11.70;99.90;;;;;;5015548;28;20066;-75
2023/05/20 00:30:12;;;;;;;16.60;6.28;;;11.60;99.90;;;;;;5044353;28;20037;-72
2023/05/20 00:32:38;;;;;;;17.27;6.85;;;11.60;99.90;;;;;;5020941;28;20038;-76
2023/05/20 00:35:04;;;;;;;21.85;6.57;;;11.60;99.90;;;;;;5021838;28;20402;-73
2023/05/20 00:37:30;;;;;;;20.10;6.68;;;11.60;99.90;;;;;;5019127;28;20029;-76
2023/05/20 00:39:55;;;;;;;16.25;6.07;;;11.60;99.90;;;;;;5014501;28;20418;-72
2023/05/20 00:42:22;;;;;;;17.15;6.25;;;11.60;99.90;;;;;;5013276;28;20065;-72
2023/05/20 00:44:48;;;;;;;20.60;6.38;;;11.50;99.90;;;;;;5013518;28;20022;-73
2023/05/20 00:47:25;;;;;;;17.83;6.10;;;11.50;99.90;;;;;;5013358;28;20025;-73
2023/05/20 00:49:51;;;;;;;16.77;6.65;;;11.50;99.90;;;;;;5013018;28;20065;-77
2023/05/20 00:52:18;;;;;;;16.67;7.20;;;11.50;99.90;;;;;;5012383;28;20052;-73
2023/05/20 00:54:44;;;;;;;14.82;6.50;;;11.40;99.90;;;;;;5023800;28;20100;-71
2023/05/20 00:57:10;;;;;;;20.80;7.25;;;11.40;99.90;;;;;;5026908;28;20022;-75
2023/05/20 00:59:37;;;;;;;18.00;7.32;;;11.40;99.90;;;;;;5013889;28;20022;-76
2023/05/20 01:02:06;;;;;;;16.08;6.97;;;11.40;99.90;;;;;;5013512;28;20096;-73
2023/05/20 01:04:32;;;;;;;15.60;6.88;;;11.40;99.90;;;;;;5024664;28;20037;-73
2023/05/20 01:07:00;;;;;;;15.20;6.28;;;11.40;99.90;;;;;;5032872;28;20022;-76
2023/05/20 01:09:26;;;;;;;17.17;6.60;;;11.40;99.90;;;;;;5032484;28;20033;-75
2023/05/20 01:12:16;;;;;;;20.75;7.22;;;11.30;99.90;;;;;;5014024;28;20047;-76
2023/05/20 01:14:47;;;;;;;19.48;6.80;;;11.30;99.90;;;;;;5009854;28;20145;-76
2023/05/20 01:17:16;;;;;;;19.95;6.55;;;11.30;99.90;;;;;;5009924;28;20101;-73
2023/05/20 01:19:47;;;;;;;20.42;7.05;;;11.20;99.90;;;;;;5011787;28;20099;-73
2023/05/20 01:22:14;;;;;;;19.77;7.38;;;11.30;99.90;;;;;;5012924;28;20034;-73
2023/05/20 01:24:44;;;;;;;16.90;6.30;;;11.20;99.90;;;;;;5010287;28;20072;-75
2023/05/20 01:27:12;;;;;;;19.48;6.65;;;11.20;99.90;;;;;;5011673;28;20022;-76
2023/05/20 01:29:38;;;;;;;16.52;7.18;;;11.20;99.90;;;;;;5012062;28;20026;-73
2023/05/20 01:32:15;;;;;;;19.85;7.68;;;11.20;99.90;;;;;;5012079;28;20030;-74
2023/05/20 01:34:41;;;;;;;18.48;7.60;;;11.20;99.90;;;;;;5027969;28;20492;-74
2023/05/20 01:37:09;;;;;;;17.15;7.15;;;11.10;99.90;;;;;;5032422;28;20116;-73
2023/05/20 01:39:37;;;;;;;16.90;7.38;;;11.20;99.90;;;;;;5032286;28;20049;-75
2023/05/20 01:42:04;;;;;;;18.25;7.28;;;11.10;99.90;;;;;;5022409;28;20042;-72
2023/05/20 01:44:30;;;;;;;20.38;7.57;;;11.10;99.90;;;;;;4992812;28;20058;-72
2023/05/20 01:46:55;;;;;;;20.05;7.85;;;11.10;99.90;;;;;;5010868;28;20037;-73
2023/05/20 01:49:21;;;;;;;18.83;7.63;;;11.10;99.90;;;;;;5027804;28;20026;-71
2023/05/20 01:51:47;;;;;;;19.45;7.78;;;11.10;99.90;;;;;;5012515;28;20679;-77
2023/05/20 01:54:12;;;;;;;19.10;7.40;;;11.10;99.90;;;;;;5012837;28;20049;-73
2023/05/20 01:56:38;;;;;;;21.52;7.47;;;11.10;99.90;;;;;;5009081;28;20049;-73
2023/05/20 01:59:03;;;;;;;19.88;7.65;;;11.00;99.90;;;;;;5015830;28;20033;-73
2023/05/20 02:01:29;;;;;;;22.83;8.32;;;11.00;99.90;;;;;;5012482;28;20026;-73
2023/05/20 02:03:55;;;;;;;22.95;8.38;;;11.00;99.90;;;;;;5013186;28;20060;-72
2023/05/20 02:06:20;;;;;;;24.52;8.50;;;11.00;99.90;;;;;;5012806;28;20193;-76
2023/05/20 02:08:46;;;;;;;19.98;7.95;;;11.00;99.90;;;;;;5010277;28;20076;-74
2023/05/20 02:11:11;;;;;;;23.92;8.57;;;10.90;99.90;;;;;;5012356;28;20038;-74
2023/05/20 02:13:38;;;;;;;22.27;9.52;;;10.90;99.90;;;;;;5030014;28;20036;-76
2023/05/20 02:16:04;;;;;;;23.15;7.20;;;10.90;99.90;;;;;;5022611;28;20038;-77
2023/05/20 02:18:31;;;;;;;24.25;8.45;;;10.90;99.90;;;;;;5022279;28;20458;-73
2023/05/20 02:21:04;;;;;;;22.25;8.48;;;10.90;99.90;;;;;;5028427;28;20086;-72
2023/05/20 02:23:34;;;;;;;18.92;7.75;;;10.90;99.90;;;;;;5017221;28;20022;-73
2023/05/20 02:26:01;;;;;;;22.67;8.23;;;10.90;99.90;;;;;;5013034;28;20030;-74
2023/05/20 02:28:26;;;;;;;24.30;8.18;;;10.90;99.90;;;;;;5025248;28;20387;-72
2023/05/20 02:30:52;;;;;;;20.05;7.72;;;10.90;99.90;;;;;;5022389;28;20030;-71
2023/05/20 02:33:20;;;;;;;21.17;7.38;;;10.90;99.90;;;;;;5032163;28;20029;-73
2023/05/20 02:35:46;;;;;;;24.00;9.13;;;10.90;99.90;;;;;;5019515;28;20013;-73
2023/05/20 02:38:12;;;;;;;21.33;8.90;;;10.90;99.90;;;;;;5028064;28;20105;-71
2023/05/20 02:40:38;;;;;;;21.48;7.82;;;10.90;99.90;;;;;;5026937;28;20049;-73
2023/05/20 02:43:03;;;;;;;22.85;7.80;;;10.90;99.90;;;;;;5020273;28;20034;-76
2023/05/20 02:45:29;;;;;;;21.30;8.38;;;10.90;99.90;;;;;;5027234;28;20414;-72
2023/05/20 02:47:55;;;;;;;21.80;9.45;;;11.00;99.90;;;;;;5029958;28;20454;-73
2023/05/20 02:50:21;;;;;;;22.48;8.63;;;11.00;99.90;;;;;;5024328;28;20030;-74
2023/05/20 02:52:46;;;;;;;18.58;7.70;;;11.00;99.90;;;;;;5022566;28;20046;-76
2023/05/20 02:55:12;;;;;;;20.92;8.30;;;11.10;99.90;;;;;;5031310;28;20025;-73
2023/05/20 02:57:38;;;;;;;21.23;8.00;;;11.10;99.90;;;;;;5016898;28;20029;-73
2023/05/20 03:00:10;;;;;;;19.90;8.20;;;11.10;99.90;;;;;;5021927;28;20071;-76
2023/05/20 03:02:36;;;;;;;;;;;11.20;99.90;;;;;;5024485;28;20462;-73
2023/05/20 03:05:02;;;;;;;26.00;7.72;;;11.20;99.90;;;;;;5029785;28;19911;-73
2023/05/20 03:07:30;;;;;;;19.38;8.40;;;11.10;99.90;;;;;;5018605;28;20026;-73
2023/05/20 03:09:57;;;;;;;21.08;7.43;;;11.20;99.90;;;;;;5029616;28;20037;-75
2023/05/20 03:12:25;;;;;;;22.85;8.73;;;11.10;99.90;;;;;;5024069;28;20037;-72
2023/05/20 03:14:54;;;;;;;19.92;7.88;;;11.10;99.90;;;;;;5022092;28;20112;-71
2023/05/20 03:17:20;;;;;;;19.55;8.48;;;11.10;99.90;;;;;;5031013;28;20084;-71
2023/05/20 03:19:45;;;;;;;18.42;8.13;;;11.10;99.90;;;;;;5019159;28;20096;-72
2023/05/20 03:22:11;;;;;;;22.17;8.43;;;11.10;99.90;;;;;;5026924;28;20026;-72
2023/05/20 03:24:37;;;;;;;22.15;8.00;;;11.10;99.90;;;;;;5025876;28;20030;-72
2023/05/20 03:27:03;;;;;;;20.40;7.60;;;11.00;99.90;;;;;;5020022;28;20520;-73
2023/05/20 03:29:28;;;;;;;20.25;7.75;;;11.00;99.90;;;;;;5026915;28;20025;-73
2023/05/20 03:31:54;;;;;;;21.10;8.07;;;11.10;99.90;;;;;;5033095;28;20041;-73
2023/05/20 03:34:19;;;;;;;19.75;7.75;;;11.10;99.90;;;;;;5025774;28;20030;-76
2023/05/20 03:36:45;;;;;;;14.75;6.90;;;11.00;99.90;;;;;;5026853;28;20057;-75
2023/05/20 03:39:11;;;;;;;20.40;7.85;;;11.00;99.90;;;;;;5014266;28;20397;-76
2023/05/20 03:41:36;;;;;;;22.85;8.13;;;11.10;99.90;;;;;;5015777;28;20045;-75
2023/05/20 03:44:02;;;;;;;23.60;8.02;;;11.00;99.90;;;;;;5043372;28;20030;-73
2023/05/20 03:46:29;;;;;;;18.70;8.05;;;11.10;99.90;;;;;;5023551;28;20485;-72
2023/05/20 03:48:55;;;;;;;20.65;8.05;;;11.10;99.90;;;;;;5019594;28;20362;-73
2023/05/20 03:51:20;;;;;;;18.63;7.85;;;11.10;99.90;;;;;;5030525;28;20041;-73
2023/05/20 03:53:46;;;;;;;17.13;7.68;;;11.10;99.90;;;;;;5018371;28;20025;-72
2023/05/20 03:56:12;;;;;;;19.13;7.70;;;11.10;99.90;;;;;;5026124;28;20026;-73
2023/05/20 03:58:38;;;;;;;16.80;7.07;;;11.10;99.90;;;;;;5025235;28;20025;-72
2023/05/20 04:01:03;;;;;;;21.17;7.57;;;11.10;99.90;;;;;;5019092;28;20105;-72
2023/05/20 04:03:30;;;;;;;21.80;7.78;;;11.20;99.90;;;;;;5030271;28;20045;-71
2023/05/20 04:05:55;;;;;;;24.45;8.30;;;11.10;99.90;;;;;;5019799;28;20057;-73
2023/05/20 04:08:24;;;;;;;17.30;6.95;;;11.20;99.90;;;;;;5024817;28;20064;-72
2023/05/20 04:10:50;;;;;;;21.67;8.60;;;11.20;99.90;;;;;;5025747;28;20029;-73
2023/05/20 04:13:16;;;;;;;19.50;8.48;;;11.20;99.90;;;;;;5017625;28;20107;-74
2023/05/20 04:15:41;;;;;;;24.35;8.00;;;11.20;99.90;;;;;;5001435;28;20030;-72
2023/05/20 04:18:07;;;;;;;22.30;8.50;;;11.20;99.90;;;;;;5026574;28;20076;-75
2023/05/20 04:20:33;;;;;;;16.63;7.47;;;11.30;99.90;;;;;;5024431;28;20390;-71
2023/05/20 04:22:58;;;;;;;17.42;7.20;;;11.30;99.90;;;;;;5017883;28;20116;-75
2023/05/20 04:25:24;;;;;;;22.73;11.38;;;11.30;99.90;;;;;;5030281;28;20144;-71
2023/05/20 04:27:52;;;;;;;17.98;8.32;;;11.30;99.90;;;;;;5018416;28;20021;-75
2023/05/20 04:30:20;;;;;;;19.23;7.78;;;11.30;99.90;;;;;;5024882;28;20030;-74
2023/05/20 04:32:47;;;;;;;20.92;7.28;;;11.30;99.90;;;;;;5025921;28;20132;-73
2023/05/20 04:35:13;;;;;;;18.38;7.53;;;11.40;99.90;;;;;;5017808;28;20486;-75
2023/05/20 04:37:41;;;;;;;23.55;8.07;;;11.40;99.90;;;;;;5029618;28;20037;-72
2023/05/20 04:40:08;;;;;;;22.75;8.27;;;11.40;99.90;;;;;;5020649;28;20053;-72
2023/05/20 04:42:33;;;;;;;23.30;7.35;;;11.40;99.90;;;;;;5022714;28;20041;-73
2023/05/20 04:45:00;;;;;;;18.33;7.50;;;11.40;99.90;;;;;;5027939;28;20041;-73
2023/05/20 04:47:28;;;;;;;18.85;7.38;;;11.50;99.90;;;;;;5015149;28;20032;-72
2023/05/20 04:49:56;;;;;;;19.20;7.40;;;11.50;99.90;;;;;;5018434;28;20083;-74
2023/05/20 04:52:24;;;;;;;21.02;7.57;;;11.60;99.90;;;;;;5023485;28;20301;-73
2023/05/20 04:54:51;;;;;;;19.40;6.57;;;11.60;99.90;;;;;;5026144;28;20065;-73
2023/05/20 04:57:20;;;;;;;17.38;6.40;;;11.70;99.90;;;;;;5016750;28;20088;-75
2023/05/20 04:59:46;;;;;;;17.60;7.40;;;11.70;99.90;;;;;;5044088;28;20080;-73
2023/05/20 05:02:12;;;;;;;17.95;7.40;;;11.80;99.90;;;;;;5020674;28;20033;-73
2023/05/20 05:04:38;;;;;;;16.10;6.75;;;11.90;99.90;;;;;;5021520;28;20032;-75
2023/05/20 05:07:04;;;;;;;17.23;6.95;;;11.90;99.90;;;;;;5027744;28;20030;-73
2023/05/20 05:09:30;;;;;;;21.42;7.25;;;12.00;99.90;;;;;;5016581;28;20037;-72
2023/05/20 05:11:55;;;;;;;14.05;6.38;;;12.10;99.90;;;;;;5027203;28;20038;-72
2023/05/20 05:14:22;;;;;;;16.85;6.80;;;12.20;99.90;;;;;;5021852;28;20034;-72
2023/05/20 05:16:48;;;;;;;16.80;6.07;;;12.30;99.90;;;;;;5035171;28;20030;-72
2023/05/20 05:19:13;;;;;;;17.98;6.82;;;12.30;99.90;;;;;;5012706;28;20516;-75
2023/05/20 05:21:39;;;;;;;17.65;5.78;;;12.40;99.90;;;;;;5032300;28;20022;-76
2023/05/20 05:24:05;;;;;;;17.38;6.40;;;12.50;99.90;;;;;;5024012;28;20029;-73
2023/05/20 05:26:30;;;;;;;12.63;6.30;;;12.60;99.90;;;;;;5023222;28;20026;-73
2023/05/20 05:28:56;;;;;;;15.70;6.47;;;12.70;99.90;;;;;;5014704;28;20402;-73
2023/05/20 05:31:22;;;;;;;18.42;5.93;;;12.80;99.90;;;;;;5017346;28;20068;-73
2023/05/20 05:33:47;;;;;;;15.90;6.05;;;12.90;99.90;;;;;;5026708;28;20030;-72
2023/05/20 05:36:13;;;;;;;15.35;5.82;;;13.00;99.90;;;;;;5021454;28;20438;-72
2023/05/20 05:38:38;;;;;;;17.30;6.60;;;13.10;99.90;;;;;;5024024;28;20038;-72
2023/05/20 05:41:04;;;;;;;17.48;6.38;;;13.10;99.90;;;;;;5017159;28;20022;-73
2023/05/20 05:43:30;;;;;;;11.52;5.45;;;13.10;99.90;;;;;;5014034;28;20481;-73
2023/05/20 05:45:55;;;;;;;12.55;4.63;;;13.20;99.90;;;;;;5026207;28;20022;-73
2023/05/20 05:48:22;;;;;;;15.38;5.43;;;13.20;99.90;;;;;;5022024;28;20057;-73
2023/05/20 05:50:48;;;;;;;16.70;5.43;;;13.50;99.90;;;;;;5019268;28;20026;-72
2023/05/20 05:53:13;;;;;;;13.10;4.90;;;13.90;99.90;;;;;;5028744;28;20049;-73
2023/05/20 05:55:39;;;;;;;12.65;5.25;;;14.30;99.90;;;;;;5027784;28;20030;-73
2023/05/20 05:58:05;;;;;;;15.98;5.47;;;14.70;99.90;;;;;;5019515;28;20021;-72
2023/05/20 06:00:30;;;;;;;15.00;4.95;;;15.00;99.90;;;;;;5021423;28;20084;-72
2023/05/20 06:02:56;;;;;;;12.75;4.70;;;15.40;99.90;;;;;;5041484;28;20475;-73
2023/05/20 06:05:21;;;;;;;9.30;4.70;;;15.80;99.90;;;;;;5015486;28;20022;-73
2023/05/20 06:07:47;;;;;;;13.00;5.00;;;15.90;99.90;;;;;;5027437;28;20026;-72
2023/05/20 06:10:12;;;;;;;10.82;4.13;;;15.90;99.90;;;;;;5018896;28;20108;-72
2023/05/20 06:12:38;;;;;;;13.15;4.80;;;16.00;99.90;;;;;;5019382;28;20042;-73
2023/05/20 06:15:05;;;;;;;13.25;4.60;;;15.90;99.90;;;;;;5012404;28;20433;-73
2023/05/20 06:17:31;;;;;;;11.82;5.43;;;15.80;99.90;;;;;;5014854;28;20485;-73
2023/05/20 06:19:56;;;;;;;14.50;5.15;;;15.70;99.90;;;;;;5022540;28;20112;-73
2023/05/20 06:22:22;;;;;;;10.90;4.57;;;15.70;99.90;;;;;;5031763;28;20034;-72
2023/05/20 06:24:47;;;;;;;11.23;4.13;;;16.10;99.90;;;;;;5018830;28;20026;-74
2023/05/20 06:27:13;;;;;;;8.07;4.25;;;17.30;99.90;;;;;;5028844;28;20045;-72
2023/05/20 06:29:38;;;;;;;9.40;4.18;;;18.20;99.90;;;;;;5011151;28;20057;-72
2023/05/20 06:32:05;;;;;;;10.77;3.78;;;19.10;99.90;;;;;;5024418;28;20044;-74
2023/05/20 06:34:30;;;;;;;9.18;3.83;;;19.60;99.90;;;;;;5020222;28;20030;-72
2023/05/20 06:36:56;;;;;;;9.05;3.38;;;19.90;99.90;;;;;;5012448;28;20041;-75
2023/05/20 06:39:22;;;;;;;8.75;3.72;;;20.30;99.90;;;;;;5028547;28;20050;-71
2023/05/20 06:41:47;;;;;;;9.35;4.10;;;20.60;99.90;;;;;;5016928;28;20033;-74
2023/05/20 06:44:13;;;;;;;9.55;3.30;;;21.20;99.40;;;;;;5031760;28;20045;-72
2023/05/20 06:46:40;;;;;;;11.20;4.85;;;21.60;98.30;;;;;;5031947;28;20032;-75
2023/05/20 06:49:05;;;;;;;6.75;3.13;;;21.80;97.90;;;;;;5031912;28;20026;-76
2023/05/20 06:51:31;;;;;;;9.60;3.78;;;22.10;97.40;;;;;;5031495;28;20033;-76
2023/05/20 06:53:56;;;;;;;8.00;3.78;;;22.40;96.90;;;;;;5047349;28;20235;-77
2023/05/20 06:56:22;;;;;;;10.25;3.47;;;22.80;96.70;;;;;;5047518;28;20112;-73
2023/05/20 06:58:47;;;;;;;11.38;4.30;;;22.90;96.30;;;;;;5032322;28;20075;-75
2023/05/20 07:01:13;;;;;;;8.70;3.65;;;23.20;95.80;;;;;;5031949;28;20030;-75
2023/05/20 07:03:38;;;;;;;12.32;3.90;;;23.40;95.10;;;;;;5031924;28;20847;-73
2023/05/20 07:06:04;;;;;;;8.48;3.72;;;23.60;94.90;;;;;;5032902;28;20029;-74
2023/05/20 07:08:30;;;;;;;9.85;3.47;;;23.60;94.70;;;;;;5035380;28;20033;-75
2023/05/20 07:10:56;;;;;;;6.35;3.30;;;23.90;94.40;;;;;;5035584;28;20374;-75
2023/05/20 07:13:24;;;;;;;8.05;3.28;;;23.90;94.10;;;;;;5035526;28;20041;-72
2023/05/20 07:15:51;;;;;;;7.88;3.50;;;23.70;94.20;;;;;;5021681;28;20033;-76
2023/05/20 07:18:16;;;;;;;7.90;3.42;;;23.70;94.40;;;;;;4998312;28;20069;-76
2023/05/20 07:20:43;;;;;;;9.07;3.30;;;23.80;94.30;;;;;;5016443;28;20026;-74
2023/05/20 07:23:09;;;;;;;8.80;3.72;;;23.80;94.00;;;;;;5015585;28;20018;-74
2023/05/20 07:25:34;;;;;;;6.80;3.20;;;23.50;94.30;;;;;;5015552;28;20095;-74
2023/05/20 07:28:00;;;;;;;6.70;3.50;;;23.20;94.60;;;;;;5015477;28;20026;-73
2023/05/20 07:30:26;;;;;;;9.30;3.10;;;23.10;94.80;;;;;;5015849;28;20127;-73
2023/05/20 07:32:52;;;;;;;8.05;3.70;;;22.90;94.50;;;;;;5031017;28;20038;-73
2023/05/20 07:35:17;;;;;;;9.25;4.00;;;22.60;94.90;;;;;;5016326;28;20026;-73
2023/05/20 07:37:43;;;;;;;7.60;3.20;;;22.20;95.30;;;;;;5016085;28;20068;-75
2023/05/20 07:40:10;;;;;;;9.25;3.55;;;21.90;95.50;;;;;;5012637;28;20125;-73
2023/05/20 07:42:35;;;;;;;7.55;3.25;;;21.50;96.00;;;;;;5015955;28;20695;-72
2023/05/20 07:45:01;;;;;;;7.30;3.05;;;21.30;96.10;;;;;;5016356;28;20458;-74
2023/05/20 07:47:27;;;;;;;4.53;2.60;;;21.00;96.70;;;;;;5030678;28;20135;-73
2023/05/20 07:49:52;;;;;;;9.02;3.50;;;20.80;97.00;;;;;;5034915;28;20037;-74
2023/05/20 07:52:18;;;;;;;6.78;3.42;;;20.60;97.30;;;;;;5035067;28;20125;-71
2023/05/20 07:54:43;;;;;;;8.05;3.38;;;20.60;97.40;;;;;;5031518;28;20105;-72
2023/05/20 07:57:09;;;;;;;6.32;3.13;;;20.70;96.90;;;;;;5014389;28;20058;-72
2023/05/20 07:59:35;;;;;;;10.60;3.65;;;20.80;96.20;;;;;;5013167;28;20022;-72
2023/05/20 08:02:01;;;;;;;6.55;3.45;;;21.00;96.30;;;;;;5014257;28;20061;-72
2023/05/20 08:04:27;;;;;;;5.07;2.90;;;21.40;96.00;;;;;;5014777;28;20450;-75
2023/05/20 08:06:53;;;;;;;4.43;2.75;;;21.70;95.30;;;;;;5014819;28;20382;-73
2023/05/20 08:09:19;;;;;;;5.88;3.20;;;22.00;94.80;;;;;;5014765;28;20438;-72
2023/05/20 08:11:45;;;;;;;6.30;3.03;;;22.30;94.60;;;;;;5016931;28;20041;-72
2023/05/20 08:14:10;;;;;;;6.28;3.10;;;22.30;94.30;;;;;;5048843;28;20447;-73
2023/05/20 08:16:36;;;;;;;7.82;3.35;;;22.30;94.00;;;;;;5033360;28;20466;-73
2023/05/20 08:19:02;;;;;;;7.15;2.97;;;22.80;93.40;;;;;;5024992;28;20378;-74
2023/05/20 08:21:27;;;;;;;5.70;2.85;;;23.40;92.70;;;;;;5014112;28;20022;-74
2023/05/20 08:23:53;;;;;;;5.10;2.95;;;24.30;92.20;;;;;;5014179;28;20378;-76
2023/05/20 08:26:19;;;;;;;9.55;2.95;;;25.40;90.70;;;;;;5014115;28;20029;-74
2023/05/20 08:28:45;;;;;;;6.82;2.60;;;26.20;89.80;;;;;;5013736;28;20018;-73
2023/05/20 08:31:11;;;;;;;4.07;2.78;;;26.60;88.40;;;;;;5013253;28;20034;-74
2023/05/20 08:33:36;;;;;;;6.45;2.60;;;27.00;87.30;;;;;;5012903;28;20037;-72
2023/05/20 08:36:02;;;;;;;5.32;2.70;;;27.50;84.80;;;;;;5012565;28;20073;-73
2023/05/20 08:38:28;;;;;;;5.43;3.83;;;27.60;84.20;;;;;;5011482;28;20076;-73
2023/05/20 08:40:55;;;;;;;4.72;2.90;;;27.80;82.30;;;;;;5013644;28;20132;-75
2023/05/20 08:43:22;;;;;;;6.45;2.60;;;27.90;81.60;;;;;;5013916;28;20103;-74
2023/05/20 08:45:50;;;;;;;4.88;2.70;;;28.10;81.20;;;;;;5014984;28;20133;-73
2023/05/20 08:48:17;;;;;;;9.68;2.65;;;28.20;80.80;;;;;;5033510;28;20029;-73
2023/05/20 08:50:45;;;;;;;6.45;3.38;;;28.30;80.60;;;;;;5030677;28;20033;-72
2023/05/20 08:53:11;;;;;;;8.32;3.17;;;28.40;80.10;;;;;;5008960;28;20038;-70
2023/05/20 08:55:47;;;;;;;4.90;2.60;;;28.60;80.20;;;;;;5010292;28;20034;-72
2023/05/20 08:58:14;;;;;;;5.55;2.45;;;28.60;78.80;;;;;;5009801;28;20022;-72
2023/05/20 09:00:40;;;;;;;4.80;2.70;;;28.80;78.60;;;;;;5013200;28;20030;-71
2023/05/20 09:03:06;;;;;;;4.72;2.30;;;29.10;78.30;;;;;;5013006;28;20041;-72
2023/05/20 09:05:33;;;;;;;6.43;2.78;;;29.60;77.60;;;;;;5013349;28;20026;-72
2023/05/20 09:08:09;;;;;;;7.03;2.67;;;29.90;76.00;;;;;;5012583;28;20537;-72
2023/05/20 09:10:35;;;;;;;5.88;2.63;;;29.70;75.00;;;;;;5012352;28;20367;-72
2023/05/20 09:13:03;;;;;;;7.78;2.30;;;29.50;74.50;;;;;;5013009;28;20034;-72
2023/05/20 09:15:29;;;;;;;4.43;2.42;;;29.30;74.90;;;;;;5012510;28;20060;-71
2023/05/20 09:17:55;;;;;;;7.22;2.80;;;29.00;75.60;;;;;;5013140;28;20461;-72
2023/05/20 09:20:22;;;;;;;5.30;2.97;;;29.20;74.90;;;;;;5013242;28;20058;-71
2023/05/20 09:22:52;;;;;;;8.68;3.92;;;29.50;73.40;;;;;;5028466;28;20033;-72
2023/05/20 09:25:21;;;;;;;4.15;2.60;;;29.40;74.30;;;;;;5012489;28;20049;-72
2023/05/20 09:27:48;;;;;;;8.32;2.92;;;29.30;73.90;;;;;;5011234;28;20120;-75
2023/05/20 09:30:17;;;;;;;8.27;3.28;;;29.50;73.70;;;;;;5017360;28;20030;-71
2023/05/20 09:32:43;;;;;;;5.90;2.80;;;29.70;73.70;;;;;;5018903;28;20045;-72
2023/05/20 09:35:12;;;;;;;8.93;2.63;;;29.80;71.80;;;;;;5011784;28;20036;-71
2023/05/20 09:37:41;;;;;;;7.18;2.80;;;30.10;70.90;;;;;;5011822;28;20080;-72
2023/05/20 09:40:11;;;;;;;6.88;3.42;;;30.50;70.20;;;;;;5012353;28;20104;-74
2023/05/20 09:43:03;;;;;;;8.00;2.58;;;30.40;69.10;;;;;;5012821;28;20462;-73
2023/05/20 09:45:29;;;;;;;7.38;2.38;;;30.50;69.20;;;;;;5009742;28;20402;-72
2023/05/20 09:47:56;;;;;;;6.20;2.42;;;30.70;69.60;;;;;;4996762;28;20104;-72
2023/05/20 09:50:23;;;;;;;7.22;2.10;;;31.00;69.10;;;;;;5007967;28;20437;-71
2023/05/20 09:52:51;;;;;;;4.22;2.10;;;31.20;68.90;;;;;;4993015;28;20485;-72
2023/05/20 09:55:18;;;;;;;5.32;2.50;;;31.50;67.50;;;;;;4993542;28;20465;-72
2023/05/20 09:57:45;;;;;;;3.83;2.50;;;31.40;68.30;;;;;;5012369;28;20037;-72
2023/05/20 10:00:13;;;;;;;4.47;1.92;;;31.40;67.60;;;;;;5011230;28;20037;-73
2023/05/20 10:02:50;;;;;;;5.55;2.60;;;31.30;66.30;;;;;;5011782;28;20057;-74
2023/05/20 10:05:30;;;;;;;3.45;2.30;;;31.10;66.70;;;;;;5011267;28;20116;-73
2023/05/20 10:08:14;;;;;;;5.03;1.90;;;31.40;65.90;;;;;;5024669;28;20038;-71
2023/05/20 10:10:54;;;;;;;5.65;2.05;;;31.90;65.60;;;;;;5009385;28;20033;-75
2023/05/20 10:13:45;;;;;;;4.80;2.17;;;32.30;64.80;;;;;;5011561;28;20038;-73
2023/05/20 10:17:07;;;;;;;4.03;2.47;;;32.10;64.50;;;;;;5008493;28;20041;-75
2023/05/20 10:19:33;;;;;;;4.47;2.33;;;32.10;65.30;;;;;;4994762;28;20027;-73
2023/05/20 10:22:03;;;;;;;3.90;2.13;;;31.60;66.00;;;;;;4996475;28;20040;-71
2023/05/20 10:24:31;;;;;;;4.75;2.40;;;31.30;65.20;;;;;;5010326;28;20030;-73
2023/05/20 10:26:59;;;;;;;8.88;2.38;;;31.10;66.80;;;;;;5011785;28;20030;-72
2023/05/20 10:29:25;;;;;;;2.90;1.85;;;31.20;64.90;;;;;;5011925;28;20033;-71
2023/05/20 10:31:51;;;;;;;5.47;2.33;;;31.00;65.50;;;;;;5018000;28;20038;-71
2023/05/20 10:34:23;;;;;;;4.93;2.20;;;30.90;66.00;;;;;;5011863;28;20052;-72
2023/05/20 10:36:54;;;;;;;;;;;30.80;66.30;;;;;;5011216;28;20040;-75
2023/05/20 10:39:28;;;;;;;3.50;2.22;;;30.70;66.00;;;;;;5009308;28;19987;-72
2023/05/20 10:42:36;;;;;;;3.70;1.88;;;30.60;66.60;;;;;;5012141;28;20150;-74
2023/05/20 10:45:02;;;;;;;5.68;2.03;;;30.80;65.90;;;;;;5013757;28;20040;-72
2023/05/20 10:47:28;;;;;;;3.83;2.03;;;31.00;65.50;;;;;;5015806;28;20080;-75
2023/05/20 10:49:54;;;;;;;4.38;2.10;;;31.40;64.60;;;;;;5015832;28;20030;-75
2023/05/20 10:52:20;;;;;;;5.40;1.80;;;31.60;64.40;;;;;;5015558;28;20038;-72
2023/05/20 10:54:56;;;;;;;4.80;2.30;;;31.70;63.70;;;;;;5015071;28;20037;-72
2023/05/20 10:57:23;;;;;;;5.05;2.20;;;31.40;64.00;;;;;;4995730;28;20022;-71
2023/05/20 10:59:51;;;;;;;10.27;2.22;;;31.40;63.60;;;;;;4996283;28;20034;-73
2023/05/20 11:02:21;;;;;;;5.65;2.30;;;31.40;63.00;;;;;;4995779;28;20037;-74
2023/05/20 11:04:48;;;;;;;2.80;1.83;;;31.20;63.90;;;;;;4995827;28;20041;-72
2023/05/20 11:07:27;;;;;;;5.47;2.13;;;31.00;63.60;;;;;;4995826;28;20041;-72
2023/05/20 11:10:08;;;;;;;3.35;1.83;;;30.80;63.80;;;;;;4996269;28;20532;-73
2023/05/20 11:12:40;;;;;;;3.90;1.92;;;31.10;64.60;;;;;;4996177;28;20053;-72
2023/05/20 11:15:14;;;;;;;3.30;1.95;;;31.30;63.40;;;;;;4995776;28;20030;-72
2023/05/20 11:17:54;;;;;;;3.15;2.03;;;31.40;63.40;;;;;;5001929;28;20030;-74
2023/05/20 11:20:23;;;;;;;4.57;1.67;;;31.60;63.30;;;;;;5015282;28;20155;-74
2023/05/20 11:22:53;;;;;;;4.20;1.92;;;31.90;62.80;;;;;;5023492;28;20037;-71
2023/05/20 11:25:19;;;;;;;5.22;2.13;;;31.70;62.90;;;;;;5023960;28;20026;-71
2023/05/20 11:27:45;;;;;;;2.60;1.70;;;31.50;62.70;;;;;;5014899;28;20500;-74
2023/05/20 11:30:18;;;;;;;5.82;2.30;;;31.10;62.60;;;;;;4996477;28;20066;-75
2023/05/20 11:32:55;;;;;;;6.75;2.25;;;30.70;63.10;;;;;;5013539;28;20125;-71
2023/05/20 11:35:24;;;;;;;3.55;1.98;;;30.50;63.80;;;;;;5013894;28;20076;-74
2023/05/20 11:38:08;;;;;;;3.08;1.80;;;30.90;63.90;;;;;;5014710;28;20033;-71
2023/05/20 11:40:41;;;;;;;2.97;1.73;;;31.30;63.30;;;;;;4994499;28;20099;-72
2023/05/20 11:43:10;;;;;;;3.30;2.08;;;31.60;61.80;;;;;;5007699;28;20030;-71
2023/05/20 11:45:44;;;;;;;4.20;2.08;;;30.90;62.10;;;;;;5010207;28;20034;-72
2023/05/20 11:48:16;;;;;;;2.13;1.60;;;30.40;62.90;;;;;;5004101;28;20109;-71
2023/05/20 11:50:43;;;;;;;3.78;1.88;;;30.10;62.90;;;;;;5014360;28;20022;-72
2023/05/20 11:53:14;;;;;;;5.80;1.77;;;30.00;62.60;;;;;;5011569;28;20030;-73
2023/05/20 11:55:54;;;;;;;5.30;2.23;;;29.50;63.40;;;;;;5014670;28;20030;-72
2023/05/20 11:58:25;;;;;;;3.58;1.90;;;29.10;63.90;;;;;;5013374;28;20271;-71
2023/05/20 12:00:51;;;;;;;3.08;2.00;;;29.00;64.20;;;;;;5011593;28;20058;-74
2023/05/20 12:03:16;;;;;;;5.63;2.28;;;29.30;63.70;;;;;;5012531;28;20508;-76
2023/05/20 12:05:42;;;;;;;5.40;1.77;;;29.50;63.20;;;;;;5013895;28;20026;-72
2023/05/20 12:08:08;;;;;;;5.72;2.10;;;29.00;64.20;;;;;;5013404;28;20036;-73
2023/05/20 12:10:35;;;;;;;4.32;1.98;;;28.90;64.80;;;;;;5014204;28;20486;-73
2023/05/20 12:13:02;;;;;;;5.75;2.20;;;29.20;64.20;;;;;;5011828;28;20034;-73
2023/05/20 12:15:27;;;;;;;5.15;1.95;;;29.50;63.30;;;;;;5013688;28;20029;-71
2023/05/20 12:17:53;;;;;;;5.88;2.10;;;29.70;63.40;;;;;;5013680;28;20073;-72
2023/05/20 12:20:23;;;;;;;4.45;2.00;;;30.00;62.90;;;;;;5010437;28;20034;-71
2023/05/20 12:22:49;;;;;;;5.00;1.92;;;29.60;63.30;;;;;;5012635;28;20033;-72
2023/05/20 12:25:17;;;;;;;4.82;1.88;;;29.10;63.80;;;;;;5011815;28;20112;-71
2023/05/20 12:27:47;;;;;;;5.78;2.00;;;28.80;63.60;;;;;;5012139;28;20088;-72
2023/05/20 12:30:17;;;;;;;4.47;1.70;;;28.60;64.50;;;;;;5013733;28;20025;-72
2023/05/20 12:32:44;;;;;;;4.00;1.98;;;28.70;63.50;;;;;;5015715;28;20029;-71
2023/05/20 12:35:10;;;;;;;5.88;2.25;;;28.40;64.20;;;;;;5013777;28;20030;-70
2023/05/20 12:37:37;;;;;;;5.15;2.13;;;27.80;64.70;;;;;;5001122;28;20026;-71
2023/05/20 12:40:07;;;;;;;6.40;2.10;;;27.30;65.90;;;;;;4999534;28;20041;-70
2023/05/20 12:42:36;;;;;;;7.30;2.50;;;26.90;66.50;;;;;;5013764;28;20457;-74
2023/05/20 12:45:12;;;;;;;4.93;2.08;;;26.30;66.90;;;;;;5013707;28;20045;-71